createdAt,value
2019-02-06T00:02:37.790Z,62.68
2019-02-06T00:07:45.459Z,55.90
2019-02-06T00:12:54.142Z,59.90
2019-02-06T00:18:02.220Z,60.22
2019-02-06T00:23:10.482Z,58.83
2019-02-06T00:28:18.497Z,55.47
2019-02-06T00:33:26.717Z,53.39
2019-02-06T00:38:34.819Z,55.44
2019-02-06T00:43:42.873Z,55.85
2019-02-06T00:48:50.969Z,58.46
2019-02-06T00:53:59.230Z,53.85
2019-02-06T00:59:07.312Z,53.73
2019-02-06T01:04:15.516Z,53.23
2019-02-06T01:09:23.685Z,53.21
2019-02-06T01:14:31.928Z,49.15
2019-02-06T01:19:40.053Z,51.08
2019-02-06T01:24:48.209Z,54.19
2019-02-06T01:29:56.366Z,49.66
2019-02-06T01:35:04.578Z,47.50
2019-02-06T01:40:12.747Z,46.82
2019-02-06T01:45:20.973Z,46.97
2019-02-06T01:50:29.065Z,47.78
2019-02-06T01:55:37.957Z,43.36
2019-02-06T02:00:45.933Z,46.56
2019-02-06T02:06:01.900Z,49.88
2019-02-06T02:11:01.636Z,47.92
2019-02-06T02:16:09.845Z,53.11
2019-02-06T02:21:17.941Z,57.29
2019-02-06T02:26:26.277Z,66.61
2019-02-06T02:31:34.408Z,72.39
2019-02-06T02:36:42.637Z,70.41
2019-02-06T02:41:50.739Z,72.26
2019-02-06T02:46:58.980Z,71.72
2019-02-06T02:52:07.079Z,78.76
2019-02-06T02:57:15.349Z,79.10
2019-02-06T03:02:23.437Z,81.53
2019-02-06T03:07:31.661Z,79.39
2019-02-06T03:12:39.699Z,87.21
2019-02-06T03:17:47.958Z,81.07
2019-02-06T03:22:56.062Z,82.87
2019-02-06T03:28:04.288Z,85.45
2019-02-06T03:33:12.378Z,86.85
2019-02-06T03:38:20.678Z,84.88
2019-02-06T03:43:28.722Z,80.23
2019-02-06T03:48:37.002Z,82.07
2019-02-06T03:53:45.073Z,84.63
2019-02-06T03:58:53.385Z,82.06
2019-02-06T04:04:01.526Z,81.93
2019-02-06T04:09:09.822Z,87.97
2019-02-06T04:14:17.812Z,83.74
2019-02-06T04:19:25.996Z,83.20
2019-02-06T04:24:34.174Z,81.87
2019-02-06T04:29:42.380Z,81.80
2019-02-06T04:34:50.515Z,83.48
2019-02-06T04:39:58.844Z,79.88
2019-02-06T04:45:06.903Z,79.35
2019-02-06T04:50:15.243Z,79.36
2019-02-06T04:55:23.495Z,74.81
2019-02-06T05:00:31.753Z,72.54
2019-02-06T05:05:39.885Z,67.65
2019-02-06T05:10:47.365Z,70.17
2019-02-06T05:15:55.651Z,65.96
2019-02-06T05:21:03.872Z,70.02
2019-02-06T05:26:12.370Z,77.08
2019-02-06T05:31:20.613Z,69.25
2019-02-06T05:36:29.229Z,76.78
2019-02-06T05:41:37.481Z,70.05
2019-02-06T05:46:45.560Z,68.49
2019-02-06T05:51:53.841Z,66.13
2019-02-06T05:57:02.085Z,65.20
2019-02-06T06:02:10.385Z,65.14
2019-02-06T06:07:18.209Z,57.16
2019-02-06T06:12:26.427Z,61.20
2019-02-06T06:17:34.553Z,61.18
2019-02-06T06:22:42.785Z,60.81
2019-02-06T06:27:50.853Z,57.04
2019-02-06T06:32:58.989Z,55.47
2019-02-06T06:38:07.132Z,52.80
2019-02-06T06:43:16.382Z,53.16
2019-02-06T06:48:22.950Z,50.72
2019-02-06T06:53:31.221Z,50.14
2019-02-06T06:58:39.374Z,45.26
2019-02-06T07:03:47.764Z,46.41
2019-02-06T07:08:56.181Z,48.43
2019-02-06T07:14:04.325Z,47.79
2019-02-06T07:19:12.441Z,46.99
2019-02-06T07:24:20.665Z,41.38
2019-02-06T07:29:28.773Z,37.92
2019-02-06T07:34:35.370Z,37.31
2019-02-06T07:39:43.494Z,33.62
2019-02-06T07:44:51.784Z,35.72
2019-02-06T07:49:59.841Z,35.14
2019-02-06T07:55:08.120Z,32.94
2019-02-06T08:00:16.545Z,31.62
2019-02-06T08:05:24.731Z,32.15
2019-02-06T08:10:32.352Z,32.49
2019-02-06T08:15:40.641Z,34.25
2019-02-06T08:20:48.801Z,31.59
2019-02-06T08:25:57.244Z,32.21
2019-02-06T08:31:06.100Z,28.60
2019-02-06T08:36:14.329Z,28.75
2019-02-06T08:41:22.445Z,29.56
2019-02-06T08:46:30.981Z,31.50
2019-02-06T08:51:39.120Z,27.14
2019-02-06T08:56:47.453Z,25.50
2019-02-06T09:01:55.699Z,30.43
2019-02-06T09:07:04.073Z,28.50
2019-02-06T09:12:12.187Z,24.71
2019-02-06T09:17:20.447Z,25.32
2019-02-06T09:22:28.579Z,26.24
2019-02-06T09:27:36.841Z,26.98
2019-02-06T09:32:44.993Z,27.37
2019-02-06T09:37:53.805Z,23.83
2019-02-06T09:43:02.080Z,21.54
2019-02-06T09:48:10.204Z,24.75
2019-02-06T09:53:18.415Z,23.06
2019-02-06T09:58:26.715Z,19.17
2019-02-06T10:03:34.845Z,18.31
2019-02-06T10:08:43.125Z,18.84
2019-02-06T10:13:51.225Z,18.10
2019-02-06T10:19:00.313Z,18.26
2019-02-06T10:24:08.698Z,18.55
2019-02-06T10:29:16.954Z,19.46
2019-02-06T10:34:25.104Z,17.44
2019-02-06T10:39:34.854Z,18.97
2019-02-06T10:44:40.906Z,19.15
2019-02-06T10:49:49.174Z,18.84
2019-02-06T10:54:57.200Z,18.37
2019-02-06T11:00:05.523Z,19.08
2019-02-06T11:05:14.582Z,19.41
2019-02-06T11:10:22.773Z,17.19
2019-02-06T11:15:30.897Z,18.12
2019-02-06T11:20:39.244Z,20.22
2019-02-06T11:25:47.783Z,19.89
2019-02-06T11:30:57.301Z,18.29
2019-02-06T11:36:03.629Z,20.12
2019-02-06T11:41:11.869Z,21.79
2019-02-06T11:46:19.892Z,20.11
2019-02-06T11:51:28.132Z,20.25
2019-02-06T11:56:36.161Z,19.35
2019-02-06T12:01:44.456Z,21.14
2019-02-06T12:06:52.429Z,22.00
2019-02-06T12:12:00.718Z,21.41
2019-02-06T12:17:09.041Z,25.63
2019-02-06T12:22:17.442Z,30.54
2019-02-06T12:27:26.494Z,29.20
2019-02-06T12:32:34.685Z,26.28
2019-02-06T12:37:42.940Z,25.65
2019-02-06T12:42:51.142Z,25.41
2019-02-06T12:47:59.277Z,27.95
2019-02-06T12:53:07.579Z,26.40
2019-02-06T12:58:15.701Z,28.75
2019-02-06T13:03:24.001Z,25.73
2019-02-06T13:08:32.073Z,28.93
2019-02-06T13:13:40.330Z,27.84
2019-02-06T13:18:48.476Z,25.75
2019-02-06T13:23:56.166Z,31.65
2019-02-06T13:29:04.162Z,32.05
2019-02-06T13:34:12.544Z,31.31
2019-02-06T13:39:20.599Z,30.53
2019-02-06T13:44:29.305Z,27.87
2019-02-06T13:49:37.549Z,30.03
2019-02-06T13:54:45.837Z,29.80
2019-02-06T13:59:53.918Z,24.58
2019-02-06T14:05:02.444Z,26.80
2019-02-06T14:10:10.807Z,25.46
2019-02-06T14:15:19.293Z,26.17
2019-02-06T14:20:27.434Z,26.33
2019-02-06T14:25:35.835Z,24.38
2019-02-06T14:30:44.207Z,23.15
2019-02-06T14:35:52.501Z,25.30
2019-02-06T14:41:08.256Z,24.35
2019-02-06T14:46:08.957Z,24.53
2019-02-06T14:51:17.116Z,25.94
2019-02-06T14:56:26.026Z,23.75
2019-02-06T15:01:35.534Z,22.57
2019-02-06T15:06:43.761Z,23.66
2019-02-06T15:11:51.869Z,24.61
2019-02-06T15:17:00.265Z,24.73
2019-02-06T15:22:07.795Z,21.79
2019-02-06T15:27:16.036Z,26.54
2019-02-06T15:32:24.405Z,30.30
2019-02-06T15:37:32.755Z,26.11
2019-02-06T15:42:43.356Z,26.46
2019-02-06T15:47:48.518Z,28.44
2019-02-06T15:52:56.645Z,28.17
2019-02-06T15:58:04.926Z,30.26
2019-02-06T16:03:13.066Z,32.77
2019-02-06T16:08:21.261Z,34.22
2019-02-06T16:13:29.379Z,34.64
2019-02-06T16:18:38.201Z,31.30
2019-02-06T16:23:47.005Z,34.84
2019-02-06T16:28:55.174Z,40.90
2019-02-06T16:34:03.153Z,45.10
2019-02-06T16:39:11.332Z,37.81
2019-02-06T16:44:19.545Z,46.33
2019-02-06T16:49:27.718Z,45.83
2019-02-06T16:54:35.856Z,49.32
2019-02-06T16:59:44.390Z,54.92
2019-02-06T17:04:52.526Z,53.40
2019-02-06T17:10:00.922Z,59.76
2019-02-06T17:15:09.013Z,59.20
2019-02-06T17:20:17.349Z,60.98
2019-02-06T17:25:25.385Z,61.55
2019-02-06T17:30:33.640Z,69.39
2019-02-06T17:35:42.101Z,70.88
2019-02-06T17:40:50.309Z,73.29
2019-02-06T17:45:58.505Z,74.82
2019-02-06T17:51:07.048Z,86.12
2019-02-06T17:56:15.084Z,88.69
2019-02-06T18:01:23.369Z,90.81
2019-02-06T18:06:31.738Z,96.31
2019-02-06T18:11:40.096Z,91.37
2019-02-06T18:16:48.441Z,96.04
2019-02-06T18:21:56.743Z,89.83
2019-02-06T18:27:04.894Z,86.59
2019-02-06T18:32:13.696Z,96.37
2019-02-06T18:37:21.846Z,96.05
2019-02-06T18:42:36.804Z,103.13
2019-02-06T18:47:38.068Z,105.42
2019-02-06T18:52:46.361Z,116.76
2019-02-06T18:57:54.625Z,114.31
2019-02-06T19:03:02.941Z,111.46
2019-02-06T19:08:11.166Z,103.60
2019-02-06T19:13:19.396Z,105.71
2019-02-06T19:18:27.745Z,107.85
2019-02-06T19:23:36.011Z,104.63
2019-02-06T19:28:44.245Z,116.67
2019-02-06T19:33:52.833Z,127.64
2019-02-06T19:39:01.120Z,102.27
2019-02-06T19:44:11.281Z,113.47
2019-02-06T19:49:17.093Z,113.69
2019-02-06T19:54:25.305Z,112.52
2019-02-06T19:59:33.446Z,111.89
2019-02-06T20:04:41.723Z,105.98
2019-02-06T20:09:49.857Z,107.38
2019-02-06T20:14:58.077Z,101.22
2019-02-06T20:20:06.270Z,114.21
2019-02-06T20:25:14.417Z,98.09
2019-02-06T20:30:22.605Z,111.08
2019-02-06T20:35:30.777Z,104.11
2019-02-06T20:40:38.878Z,101.42
2019-02-06T20:45:42.184Z,101.22
2019-02-06T20:50:51.634Z,102.59
2019-02-06T20:55:57.845Z,91.43
2019-02-06T21:01:05.945Z,90.51
2019-02-06T21:06:14.033Z,95.85
2019-02-06T21:11:23.119Z,86.59
2019-02-06T21:16:31.265Z,95.46
2019-02-06T21:21:39.405Z,81.57
2019-02-06T21:26:47.521Z,87.78
2019-02-06T21:31:55.681Z,92.50
2019-02-06T21:37:03.957Z,97.50
2019-02-06T21:42:12.182Z,100.91
2019-02-06T21:47:20.252Z,100.68
2019-02-06T21:52:28.379Z,106.94
2019-02-06T21:57:36.509Z,102.39
2019-02-06T22:02:44.669Z,105.07
2019-02-06T22:07:52.917Z,112.08
2019-02-06T22:13:01.082Z,114.89
2019-02-06T22:18:09.136Z,107.29
2019-02-06T22:23:17.365Z,108.46
2019-02-06T22:28:25.399Z,104.42
2019-02-06T22:33:33.397Z,104.21
2019-02-06T22:38:41.569Z,96.17
2019-02-06T22:43:50.165Z,102.13
2019-02-06T22:48:58.342Z,106.51
2019-02-06T22:54:06.478Z,113.56
2019-02-06T22:59:14.502Z,119.56
2019-02-06T23:04:22.553Z,116.73
2019-02-06T23:09:30.714Z,109.34
2019-02-06T23:14:38.758Z,114.94
2019-02-06T23:19:46.882Z,121.21
2019-02-06T23:24:55.042Z,123.31
2019-02-06T23:30:03.277Z,126.51
2019-02-06T23:35:11.317Z,122.59
2019-02-06T23:40:19.483Z,120.36
2019-02-06T23:45:27.629Z,126.40
2019-02-06T23:50:35.801Z,127.18
2019-02-06T23:55:44.078Z,124.23
